Time;durP1;ratioP1;P1;durP2;ratioP2;P2;SDS_P1;SDS_P2;PMS_P1;PMS_P2;Temp;Humidity;BMP_temperature;BMP_pressure;BME280_temperature;BME280_humidity;BME280_pressure;Samples;Min_cycle;Max_cycle;Signal;HPM_P1;HPM_P2
2022/03/02 00:00:55;;;;;;;10.27;4.15;;;2.50;57.10;;;;;;4991646;28;20073;-72
2022/03/02 00:03:23;;;;;;;11.60;4.57;;;2.40;56.50;;;;;;4970252;28;20065;-72
2022/03/02 00:05:50;;;;;;;15.15;5.03;;;2.30;56.20;;;;;;4988611;28;20192;-72
2022/03/02 00:08:17;;;;;;;13.98;4.97;;;2.20;55.60;;;;;;4991672;28;20053;-72
2022/03/02 00:10:44;;;;;;;13.05;4.80;;;1.90;56.30;;;;;;4991832;28;20073;-72
2022/03/02 00:13:11;;;;;;;13.27;4.50;;;1.80;56.90;;;;;;4989221;28;20143;-72
2022/03/02 00:15:38;;;;;;;18.13;5.32;;;2.00;57.80;;;;;;4989414;28;20120;-72
2022/03/02 00:18:05;;;;;;;14.50;4.50;;;2.00;58.00;;;;;;5007152;28;20123;-72
2022/03/02 00:20:32;;;;;;;13.35;4.82;;;2.20;58.20;;;;;;4992318;28;20097;-72
2022/03/02 00:22:59;;;;;;;15.90;4.82;;;2.30;57.50;;;;;;4991624;28;20567;-72
2022/03/02 00:25:26;;;;;;;11.40;4.60;;;2.10;57.50;;;;;;4990494;28;20053;-72
2022/03/02 00:27:54;;;;;;;13.77;5.00;;;2.00;58.30;;;;;;4990911;28;20108;-72
2022/03/02 00:30:23;;;;;;;11.68;4.03;;;2.20;57.80;;;;;;5005738;28;20069;-72
2022/03/02 00:32:50;;;;;;;14.77;4.40;;;2.40;57.50;;;;;;4990641;28;20453;-72
2022/03/02 00:35:17;;;;;;;12.05;4.38;;;2.40;58.20;;;;;;4987672;28;20048;-72
2022/03/02 00:37:44;;;;;;;8.90;3.75;;;2.40;57.60;;;;;;4986497;28;20076;-72
2022/03/02 00:40:11;;;;;;;10.40;3.40;;;2.40;58.10;;;;;;4990700;28;20095;-72
2022/03/02 00:42:38;;;;;;;9.55;2.90;;;2.40;57.70;;;;;;4992004;28;20497;-72
2022/03/02 00:45:05;;;;;;;14.82;3.15;;;2.20;57.70;;;;;;4992860;28;20125;-72
2022/03/02 00:47:33;;;;;;;13.77;4.22;;;2.30;56.90;;;;;;4990567;28;20623;-72
2022/03/02 00:50:00;;;;;;;14.00;3.30;;;2.40;56.50;;;;;;4992444;28;20076;-72
2022/03/02 00:52:27;;;;;;;11.30;4.32;;;2.10;56.80;;;;;;4978849;28;20042;-72
2022/03/02 00:54:55;;;;;;;11.70;4.03;;;1.90;57.30;;;;;;4989532;28;20050;-72
2022/03/02 00:57:22;;;;;;;16.52;5.10;;;2.00;58.00;;;;;;4988330;28;20128;-72
2022/03/02 00:59:49;;;;;;;9.95;3.47;;;2.00;58.40;;;;;;4990831;28;20057;-72
2022/03/02 01:02:17;;;;;;;11.48;4.28;;;2.10;58.30;;;;;;4979388;28;20114;-73
2022/03/02 01:04:44;;;;;;;13.90;4.82;;;2.20;57.80;;;;;;4994245;28;20074;-72
2022/03/02 01:07:11;;;;;;;13.68;3.97;;;2.30;57.90;;;;;;4991627;28;20073;-72
2022/03/02 01:09:39;;;;;;;8.18;3.67;;;2.20;58.30;;;;;;4990609;28;20050;-72
2022/03/02 01:12:06;;;;;;;11.00;4.28;;;2.20;57.70;;;;;;5001660;28;20093;-72
2022/03/02 01:14:33;;;;;;;10.57;4.60;;;2.10;58.40;;;;;;4987984;28;20054;-72
2022/03/02 01:17:00;;;;;;;9.85;4.80;;;2.10;58.80;;;;;;4988344;28;20856;-72
2022/03/02 01:19:28;;;;;;;12.32;4.82;;;2.20;58.30;;;;;;4991232;28;20060;-72
2022/03/02 01:21:55;;;;;;;14.05;5.20;;;2.10;59.30;;;;;;4990703;28;20070;-72
2022/03/02 01:24:22;;;;;;;19.30;5.70;;;2.10;59.30;;;;;;4973944;28;20751;-72
2022/03/02 01:26:49;;;;;;;22.50;6.25;;;2.10;59.00;;;;;;4989202;28;20042;-72
2022/03/02 01:29:16;;;;;;;14.27;5.25;;;2.00;58.60;;;;;;5006142;28;20045;-72
2022/03/02 01:31:43;;;;;;;20.77;6.55;;;1.40;60.90;;;;;;4986108;28;20041;-72
2022/03/02 01:34:10;;;;;;;17.00;6.03;;;1.10;62.20;;;;;;4990477;28;20592;-72
2022/03/02 01:36:37;;;;;;;22.13;6.95;;;1.10;62.50;;;;;;4991358;28;20125;-72
2022/03/02 01:39:05;;;;;;;21.88;6.10;;;1.30;62.20;;;;;;4991034;28;20042;-72
2022/03/02 01:41:32;;;;;;;18.83;6.68;;;1.60;61.60;;;;;;4971311;28;20184;-72
2022/03/02 01:43:59;;;;;;;14.32;4.38;;;1.50;62.00;;;;;;4988621;28;20675;-72
2022/03/02 01:46:26;;;;;;;14.02;4.97;;;1.40;62.30;;;;;;4990489;28;20060;-72
2022/03/02 01:48:53;;;;;;;16.05;5.28;;;1.60;62.00;;;;;;4987167;28;20057;-72
2022/03/02 01:51:20;;;;;;;17.38;6.15;;;1.60;62.20;;;;;;4989834;28;20531;-72
2022/03/02 01:53:47;;;;;;;16.77;5.18;;;1.60;61.60;;;;;;5005572;28;20041;-72
2022/03/02 01:56:15;;;;;;;18.88;5.57;;;1.70;62.00;;;;;;4990315;28;20057;-72
2022/03/02 01:58:44;;;;;;;20.48;6.78;;;1.70;62.00;;;;;;5006426;28;20073;-72
2022/03/02 02:01:13;;;;;;;16.70;5.78;;;1.60;62.10;;;;;;4991402;28;20064;-72
2022/03/02 02:03:41;;;;;;;19.95;6.95;;;1.40;62.50;;;;;;4987706;28;20046;-72
2022/03/02 02:06:08;;;;;;;22.55;7.60;;;1.00;63.30;;;;;;4987868;28;20109;-72
2022/03/02 02:08:36;;;;;;;18.90;7.15;;;1.30;63.40;;;;;;4986023;28;20519;-72
2022/03/02 02:11:03;;;;;;;22.85;8.25;;;1.50;62.40;;;;;;4989388;28;20524;-72
2022/03/02 02:13:32;;;;;;;23.20;8.05;;;1.80;62.00;;;;;;4989796;28;20108;-72
2022/03/02 02:15:59;;;;;;;24.05;7.68;;;1.50;63.00;;;;;;4989644;28;20046;-72
2022/03/02 02:18:27;;;;;;;28.50;6.68;;;1.60;62.60;;;;;;4991866;28;20046;-72
2022/03/02 02:20:54;;;;;;;22.27;6.68;;;1.80;61.90;;;;;;4990260;28;20980;-72
2022/03/02 02:23:21;;;;;;;18.48;6.70;;;1.60;62.00;;;;;;4988210;28;20076;-72
2022/03/02 02:25:48;;;;;;;21.52;6.68;;;1.30;62.30;;;;;;4987434;28;20038;-71
2022/03/02 02:28:24;;;;;;;17.75;6.78;;;1.20;63.90;;;;;;5004224;28;20137;-72
2022/03/02 02:30:54;;;;;;;20.98;6.90;;;1.10;64.90;;;;;;4994404;28;20052;-72
2022/03/02 02:33:23;;;;;;;18.25;6.60;;;1.30;64.20;;;;;;4996080;28;20125;-72
2022/03/02 02:35:50;;;;;;;18.70;6.90;;;1.30;64.40;;;;;;4991766;28;20057;-72
2022/03/02 02:38:20;;;;;;;18.98;7.00;;;1.30;65.00;;;;;;4991985;28;20052;-72
2022/03/02 02:40:49;;;;;;;17.35;7.05;;;0.90;65.60;;;;;;4992515;28;20046;-71
2022/03/02 02:43:17;;;;;;;28.45;10.27;;;0.50;66.60;;;;;;4993816;28;20133;-71
2022/03/02 02:45:45;;;;;;;25.75;9.38;;;0.40;67.30;;;;;;4994666;28;20042;-72
2022/03/02 02:48:12;;;;;;;26.08;9.32;;;0.60;67.10;;;;;;4992738;28;20057;-71
2022/03/02 02:50:39;;;;;;;24.80;7.95;;;0.80;67.10;;;;;;4993602;28;20612;-72
2022/03/02 02:53:11;;;;;;;29.50;10.15;;;0.80;67.00;;;;;;4992165;28;20038;-72
2022/03/02 02:55:39;;;;;;;26.05;9.10;;;1.00;66.60;;;;;;4993232;28;20116;-72
2022/03/02 02:58:06;;;;;;;22.20;7.47;;;1.00;65.60;;;;;;4993370;28;20188;-72
2022/03/02 03:00:37;;;;;;;19.85;8.05;;;1.00;65.20;;;;;;5008264;28;20065;-72
2022/03/02 03:03:04;;;;;;;21.90;6.97;;;1.10;65.50;;;;;;4992404;28;20049;-72
2022/03/02 03:05:33;;;;;;;19.92;7.63;;;1.00;65.80;;;;;;4991593;28;20057;-72
2022/03/02 03:08:19;;;;;;;24.65;7.35;;;1.00;66.20;;;;;;4992882;28;20038;-72
2022/03/02 03:10:47;;;;;;;21.48;7.72;;;1.20;64.90;;;;;;4991146;28;20042;-72
2022/03/02 03:13:15;;;;;;;22.33;7.60;;;1.20;64.90;;;;;;4989686;28;20109;-72
2022/03/02 03:15:43;;;;;;;21.15;7.22;;;1.00;65.10;;;;;;4990904;28;20050;-72
2022/03/02 03:18:10;;;;;;;23.60;7.15;;;1.00;65.50;;;;;;4994509;28;20085;-72
2022/03/02 03:20:37;;;;;;;20.80;8.20;;;1.00;65.40;;;;;;4975983;28;20747;-71
2022/03/02 03:23:06;;;;;;;23.52;7.93;;;0.60;66.60;;;;;;5008820;28;20095;-72
2022/03/02 03:25:33;;;;;;;33.80;10.20;;;0.20;67.90;;;;;;4989193;28;20050;-71
2022/03/02 03:28:01;;;;;;;32.95;12.23;;;0.30;68.30;;;;;;4991177;28;20040;-71
2022/03/02 03:30:28;;;;;;;36.83;11.32;;;0.40;68.50;;;;;;4988864;28;20042;-72
2022/03/02 03:32:55;;;;;;;29.15;10.40;;;0.40;68.30;;;;;;4990028;28;20501;-72
2022/03/02 03:35:24;;;;;;;32.10;11.75;;;0.30;68.70;;;;;;4992224;28;20045;-71
2022/03/02 03:37:53;;;;;;;33.80;11.32;;;0.40;68.60;;;;;;4991710;28;20058;-71
2022/03/02 03:40:21;;;;;;;34.13;10.48;;;0.40;68.70;;;;;;4993770;28;20042;-71
2022/03/02 03:42:50;;;;;;;37.15;12.05;;;0.40;69.10;;;;;;4991191;28;20045;-72
2022/03/02 03:45:17;;;;;;;33.58;11.38;;;0.40;68.70;;;;;;4993233;28;20112;-72
2022/03/02 03:47:45;;;;;;;33.95;11.30;;;0.70;67.90;;;;;;4990617;28;20050;-72
2022/03/02 03:50:13;;;;;;;35.47;11.32;;;0.70;68.20;;;;;;4971185;28;20050;-72
2022/03/02 03:52:41;;;;;;;27.95;10.15;;;0.90;67.50;;;;;;4977122;28;20054;-72
2022/03/02 03:55:09;;;;;;;24.83;9.07;;;0.60;67.60;;;;;;5007526;28;20049;-72
2022/03/02 03:57:36;;;;;;;34.75;10.10;;;0.70;67.60;;;;;;4974495;28;20038;-72
2022/03/02 04:00:07;;;;;;;26.75;8.88;;;0.70;67.50;;;;;;4992398;28;20054;-72
2022/03/02 04:02:35;;;;;;;28.05;7.25;;;0.60;67.70;;;;;;4987545;28;20421;-72
2022/03/02 04:05:03;;;;;;;25.92;7.97;;;0.40;68.20;;;;;;4993390;28;20161;-72
2022/03/02 04:07:30;;;;;;;25.17;8.13;;;0.30;68.20;;;;;;4990085;28;20070;-72
2022/03/02 04:09:57;;;;;;;23.58;7.55;;;0.50;68.50;;;;;;4985551;28;20046;-71
2022/03/02 04:12:24;;;;;;;20.67;8.68;;;0.70;66.70;;;;;;5005433;28;20558;-72
2022/03/02 04:14:51;;;;;;;21.27;6.95;;;0.80;66.50;;;;;;4989437;28;20298;-72
2022/03/02 04:17:18;;;;;;;25.52;8.25;;;0.80;66.60;;;;;;4992002;28;20077;-72
2022/03/02 04:19:45;;;;;;;24.67;8.32;;;0.60;67.00;;;;;;4970949;28;20057;-72
2022/03/02 04:22:12;;;;;;;22.70;8.35;;;0.50;67.40;;;;;;4991310;28;20985;-71
2022/03/02 04:24:39;;;;;;;21.17;7.20;;;0.40;68.00;;;;;;4990394;28;20070;-72
2022/03/02 04:27:07;;;;;;;22.38;8.00;;;0.50;67.30;;;;;;4990718;28;20041;-72
2022/03/02 04:29:35;;;;;;;22.75;8.02;;;0.50;67.10;;;;;;4990852;28;20038;-72
2022/03/02 04:32:05;;;;;;;17.05;6.38;;;0.40;67.20;;;;;;4989205;28;20052;-72
2022/03/02 04:34:32;;;;;;;19.65;6.00;;;0.50;67.50;;;;;;5005857;28;20097;-72
2022/03/02 04:36:59;;;;;;;14.93;5.57;;;0.50;66.80;;;;;;4986908;28;21282;-71
2022/03/02 04:39:26;;;;;;;14.75;5.25;;;0.40;67.70;;;;;;4989399;28;20155;-72
2022/03/02 04:41:53;;;;;;;14.48;4.97;;;0.40;67.30;;;;;;4988819;28;20049;-71
2022/03/02 04:44:20;;;;;;;15.02;4.63;;;0.30;67.60;;;;;;5006252;28;20555;-72
2022/03/02 04:46:50;;;;;;;11.25;4.18;;;0.30;67.40;;;;;;4998650;28;20033;-72
2022/03/02 04:49:19;;;;;;;16.60;5.55;;;0.20;67.80;;;;;;4976257;28;20505;-71
2022/03/02 04:51:47;;;;;;;13.70;4.47;;;0.10;68.10;;;;;;4991657;28;20038;-71
2022/03/02 04:57:04;;;;;;;10.55;4.05;;;0.00;68.20;;;;;;4990801;28;20165;-72
2022/03/02 04:59:31;;;;;;;14.30;5.65;;;0.00;68.40;;;;;;4988550;28;20786;-72
2022/03/02 05:01:58;;;;;;;9.73;3.92;;;0.10;68.20;;;;;;4971595;28;20065;-72
2022/03/02 05:04:26;;;;;;;18.75;5.32;;;0.10;67.90;;;;;;4991628;28;20049;-72
2022/03/02 05:06:53;;;;;;;14.45;5.03;;;0.00;68.10;;;;;;4991998;28;20038;-72
2022/03/02 05:09:20;;;;;;;19.38;5.22;;;-0.10;69.20;;;;;;4974051;28;20043;-71
2022/03/02 05:11:48;;;;;;;16.40;6.10;;;0.00;69.20;;;;;;4990742;28;20149;-71
2022/03/02 05:14:15;;;;;;;12.73;5.50;;;0.10;69.40;;;;;;4987649;28;20042;-71
2022/03/02 05:16:42;;;;;;;14.13;5.60;;;0.10;68.40;;;;;;4988569;28;20129;-71
2022/03/02 05:19:09;;;;;;;17.75;5.60;;;0.30;67.90;;;;;;4993224;28;21043;-71
2022/03/02 05:21:36;;;;;;;12.45;5.50;;;0.40;67.50;;;;;;4991232;28;20042;-70
2022/03/02 05:24:03;;;;;;;15.75;5.72;;;0.40;66.70;;;;;;4989519;28;20135;-71
2022/03/02 05:26:30;;;;;;;19.33;6.85;;;0.20;67.70;;;;;;4991718;28;20096;-71
2022/03/02 05:28:57;;;;;;;26.40;7.78;;;0.00;69.40;;;;;;4988976;28;20859;-70
2022/03/02 05:31:25;;;;;;;16.42;6.43;;;0.00;68.80;;;;;;5005687;28;20123;-71
2022/03/02 05:33:52;;;;;;;25.58;7.93;;;-0.20;70.10;;;;;;4987681;28;20136;-71
2022/03/02 05:36:24;;;;;;;24.52;7.68;;;-0.10;69.40;;;;;;4990429;28;20391;-71
2022/03/02 05:38:54;;;;;;;22.98;8.13;;;-0.40;71.10;;;;;;4989521;28;22224;-71
2022/03/02 05:41:22;;;;;;;25.33;9.48;;;-0.40;71.40;;;;;;5004793;28;20084;-71
2022/03/02 05:43:49;;;;;;;27.52;9.80;;;-0.20;70.70;;;;;;4989983;28;20135;-71
2022/03/02 05:46:16;;;;;;;31.95;10.38;;;0.10;70.20;;;;;;4986696;28;20038;-69
2022/03/02 05:48:43;;;;;;;40.03;14.02;;;-0.10;70.60;;;;;;4989171;28;20056;-70
2022/03/02 05:51:11;;;;;;;49.80;14.63;;;-0.10;70.50;;;;;;4986469;28;20046;-70
2022/03/02 05:53:38;;;;;;;44.08;15.65;;;0.10;70.00;;;;;;4986066;28;20517;-70
2022/03/02 05:56:06;;;;;;;39.40;16.60;;;0.20;69.50;;;;;;4990505;28;20053;-70
2022/03/02 05:58:33;;;;;;;32.05;13.20;;;0.10;69.60;;;;;;4989178;28;20153;-70
2022/03/02 06:01:00;;;;;;;32.28;10.68;;;0.20;69.70;;;;;;4988413;28;20054;-71
2022/03/02 06:03:28;;;;;;;34.15;11.80;;;0.40;69.60;;;;;;4991054;28;20604;-71
2022/03/02 06:05:56;;;;;;;32.22;10.57;;;0.40;69.60;;;;;;4967009;28;20119;-70
2022/03/02 06:08:23;;;;;;;33.45;11.45;;;0.20;69.40;;;;;;4991913;28;20548;-71
2022/03/02 06:10:50;;;;;;;33.92;10.95;;;0.10;70.20;;;;;;4989143;28;20042;-71
2022/03/02 06:13:18;;;;;;;28.75;9.95;;;0.20;70.70;;;;;;4989579;28;20425;-71
2022/03/02 06:15:45;;;;;;;38.53;11.18;;;0.40;69.70;;;;;;4989422;28;20046;-70
2022/03/02 06:18:13;;;;;;;41.55;13.18;;;0.40;70.80;;;;;;5004685;28;20488;-70
2022/03/02 06:20:42;;;;;;;40.70;14.32;;;0.60;69.90;;;;;;5001403;28;20064;-71
2022/03/02 06:23:10;;;;;;;36.10;13.77;;;0.60;69.30;;;;;;4969758;28;20073;-70
2022/03/02 06:25:37;;;;;;;45.45;14.40;;;1.00;68.00;;;;;;4988241;28;20048;-70
2022/03/02 06:28:04;;;;;;;53.92;17.00;;;1.30;67.50;;;;;;4995281;28;20096;-70
2022/03/02 06:30:31;;;;;;;71.72;25.60;;;1.20;67.00;;;;;;4988979;28;20045;-71
2022/03/02 06:32:59;;;;;;;64.03;24.13;;;1.10;66.90;;;;;;5004282;28;20057;-71
2022/03/02 06:35:27;;;;;;;39.72;16.23;;;1.10;66.40;;;;;;4990672;28;20042;-71
2022/03/02 06:37:54;;;;;;;31.92;13.25;;;1.20;66.40;;;;;;5005640;28;21040;-70
2022/03/02 06:40:22;;;;;;;28.92;11.98;;;1.30;66.50;;;;;;4987879;28;20058;-71
2022/03/02 06:43:18;;;;;;;30.85;10.50;;;1.30;66.30;;;;;;4988977;28;20046;-71
2022/03/02 06:45:58;;;;;;;31.17;11.68;;;1.60;65.50;;;;;;4973201;28;20053;-71
2022/03/02 06:48:34;;;;;;;32.17;10.63;;;1.60;65.10;;;;;;4991335;28;20046;-70
2022/03/02 06:51:02;;;;;;;26.00;9.95;;;1.90;63.80;;;;;;4990587;28;20521;-70
2022/03/02 06:53:37;;;;;;;25.85;8.40;;;2.00;63.40;;;;;;4990025;28;20540;-71
2022/03/02 06:56:06;;;;;;;25.60;7.80;;;2.00;62.70;;;;;;4987704;28;20054;-71
2022/03/02 06:58:49;;;;;;;119.97;37.35;;;2.20;62.40;;;;;;4996273;28;20052;-71
2022/03/02 07:01:28;;;;;;;47.65;20.52;;;2.40;61.20;;;;;;5001881;28;20053;-71
2022/03/02 07:03:57;;;;;;;24.50;9.68;;;2.50;61.00;;;;;;5004534;28;20050;-71
2022/03/02 07:06:27;;;;;;;19.10;7.07;;;2.60;60.70;;;;;;4990019;28;20193;-70
2022/03/02 07:08:55;;;;;;;18.48;7.40;;;2.70;60.00;;;;;;4991602;28;20061;-71
2022/03/02 07:11:23;;;;;;;19.35;7.20;;;2.90;60.10;;;;;;5001862;28;20050;-70
2022/03/02 07:13:51;;;;;;;20.17;6.95;;;3.00;60.30;;;;;;4989239;28;20046;-71
2022/03/02 07:16:21;;;;;;;15.98;6.82;;;3.10;59.00;;;;;;5008551;28;20046;-71
2022/03/02 07:18:50;;;;;;;17.90;6.72;;;3.20;59.60;;;;;;4989638;28;20137;-70
2022/03/02 07:21:28;;;;;;;15.13;6.70;;;3.20;60.40;;;;;;5006992;28;20601;-71
2022/03/02 07:24:04;;;;;;;15.13;6.10;;;3.30;60.80;;;;;;4992361;28;20076;-71
2022/03/02 07:26:34;;;;;;;18.40;7.00;;;3.30;61.70;;;;;;4994482;28;20060;-71
2022/03/02 07:29:02;;;;;;;16.25;7.78;;;3.60;61.60;;;;;;4994627;28;20038;-71
2022/03/02 07:31:30;;;;;;;18.95;8.38;;;3.60;60.80;;;;;;4994099;28;20042;-71
2022/03/02 07:34:06;;;;;;;19.15;7.22;;;3.60;61.00;;;;;;4994202;28;20041;-71
2022/03/02 07:36:34;;;;;;;17.90;7.20;;;4.00;60.70;;;;;;4988725;28;20088;-71
2022/03/02 07:39:01;;;;;;;15.23;4.88;;;4.10;58.50;;;;;;4992858;28;20041;-71
2022/03/02 07:41:29;;;;;;;13.52;5.10;;;4.20;57.50;;;;;;4972273;28;20053;-71
2022/03/02 07:43:58;;;;;;;13.30;6.05;;;4.40;57.70;;;;;;4992585;28;20775;-71
2022/03/02 07:46:28;;;;;;;13.63;6.50;;;4.50;56.20;;;;;;4993330;28;20132;-71
2022/03/02 07:48:56;;;;;;;14.65;5.50;;;4.50;57.20;;;;;;4994004;28;20524;-71
2022/03/02 07:51:24;;;;;;;9.82;4.65;;;4.60;57.00;;;;;;4993541;28;20065;-71
2022/03/02 07:53:55;;;;;;;19.77;8.35;;;4.70;56.60;;;;;;4992845;28;20054;-71
2022/03/02 07:56:28;;;;;;;15.02;6.35;;;4.80;56.10;;;;;;4992930;28;20506;-71
2022/03/02 07:59:03;;;;;;;11.40;5.80;;;4.90;56.10;;;;;;4988900;28;20458;-71
2022/03/02 08:01:36;;;;;;;9.48;4.53;;;5.00;54.80;;;;;;4992429;28;20208;-71
2022/03/02 08:04:05;;;;;;;;;;;5.10;55.60;;;;;;4973752;28;20119;-71
2022/03/02 08:06:39;;;;;;;10.88;3.80;;;5.30;55.10;;;;;;4990454;28;19983;-71
2022/03/02 08:09:09;;;;;;;11.65;3.85;;;5.60;52.90;;;;;;4988570;28;20034;-71
2022/03/02 08:11:37;;;;;;;11.60;5.13;;;5.60;52.20;;;;;;4991322;28;20049;-71
2022/03/02 08:14:05;;;;;;;9.57;3.72;;;5.70;52.30;;;;;;4994513;28;20073;-71
2022/03/02 08:16:33;;;;;;;10.20;4.15;;;5.80;52.20;;;;;;4992356;28;20049;-71
2022/03/02 08:19:01;;;;;;;12.32;4.18;;;6.00;51.20;;;;;;4995070;28;20096;-71
2022/03/02 08:21:35;;;;;;;16.48;6.15;;;6.10;51.20;;;;;;4977550;28;20109;-71
2022/03/02 08:24:05;;;;;;;12.23;4.03;;;6.10;51.60;;;;;;4990055;28;20060;-71
2022/03/02 08:26:34;;;;;;;8.38;3.38;;;6.10;51.10;;;;;;4986649;28;20164;-71
2022/03/02 08:29:05;;;;;;;8.18;3.28;;;6.40;50.70;;;;;;4994316;28;20062;-71
2022/03/02 08:31:34;;;;;;;10.05;3.35;;;6.50;49.70;;;;;;4975737;28;21304;-71
2022/03/02 08:34:03;;;;;;;9.75;2.85;;;6.70;49.40;;;;;;4991416;28;20403;-71
2022/03/02 08:36:33;;;;;;;8.15;3.17;;;6.90;49.20;;;;;;4991637;28;20186;-71
2022/03/02 08:39:07;;;;;;;11.57;3.78;;;6.90;48.20;;;;;;4994855;28;20038;-71
2022/03/02 08:41:35;;;;;;;12.07;3.40;;;7.00;47.30;;;;;;4991975;28;20943;-71
2022/03/02 08:44:03;;;;;;;8.82;3.40;;;7.00;47.80;;;;;;4992439;28;20057;-71
2022/03/02 08:46:30;;;;;;;9.50;3.42;;;7.00;48.60;;;;;;4994156;28;20097;-71
2022/03/02 08:48:57;;;;;;;11.82;3.63;;;7.20;48.30;;;;;;4992450;28;20145;-71
2022/03/02 08:51:26;;;;;;;14.70;4.28;;;7.40;47.70;;;;;;4991664;28;20165;-71
2022/03/02 08:53:58;;;;;;;7.35;3.45;;;7.50;47.30;;;;;;4993661;28;20042;-71
2022/03/02 08:56:26;;;;;;;10.20;3.83;;;7.60;46.90;;;;;;4990684;28;20054;-71
2022/03/02 08:58:54;;;;;;;9.63;3.85;;;7.70;46.90;;;;;;4992756;28;20039;-71
2022/03/02 09:01:27;;;;;;;8.48;3.85;;;7.80;47.00;;;;;;4989529;28;20037;-71
2022/03/02 09:03:58;;;;;;;11.52;3.70;;;7.80;46.00;;;;;;4993374;28;20050;-71
2022/03/02 09:06:30;;;;;;;9.15;4.07;;;7.90;46.80;;;;;;4989200;28;20050;-71
2022/03/02 09:08:57;;;;;;;7.80;3.53;;;7.80;45.90;;;;;;4993067;28;20041;-71
2022/03/02 09:11:24;;;;;;;9.43;4.18;;;7.90;45.60;;;;;;4993212;28;20865;-72
2022/03/02 09:13:51;;;;;;;9.68;2.92;;;8.00;46.40;;;;;;4992992;28;20406;-71
2022/03/02 09:16:21;;;;;;;5.85;2.53;;;8.00;45.90;;;;;;4991986;28;20037;-72
2022/03/02 09:18:48;;;;;;;9.57;3.22;;;8.00;45.20;;;;;;5007943;28;20057;-71
2022/03/02 09:21:20;;;;;;;8.20;2.65;;;8.30;45.30;;;;;;4994406;28;20124;-71
2022/03/02 09:23:49;;;;;;;5.80;2.50;;;8.30;44.50;;;;;;5004622;28;20505;-71
2022/03/02 09:26:18;;;;;;;7.43;2.75;;;8.40;42.80;;;;;;5002582;28;20038;-71
2022/03/02 09:28:48;;;;;;;8.70;3.50;;;8.50;42.60;;;;;;4990325;28;20054;-71
2022/03/02 09:31:16;;;;;;;9.63;2.58;;;8.70;42.40;;;;;;4992901;28;20512;-71
2022/03/02 09:33:49;;;;;;;7.82;2.55;;;8.80;42.50;;;;;;4993445;28;20541;-71
2022/03/02 09:36:21;;;;;;;11.52;3.17;;;8.90;41.80;;;;;;5007196;28;20050;-71
2022/03/02 09:38:49;;;;;;;7.33;2.63;;;9.00;42.10;;;;;;4993125;28;20573;-71
2022/03/02 09:41:49;;;;;;;6.00;2.78;;;9.00;41.80;;;;;;4989835;28;20323;-71
2022/03/02 09:44:19;;;;;;;6.55;2.58;;;9.10;41.30;;;;;;4988425;28;20066;-71
2022/03/02 09:46:56;;;;;;;10.32;2.83;;;9.10;41.40;;;;;;4991624;28;20077;-71
2022/03/02 09:49:29;;;;;;;7.70;3.03;;;9.30;40.30;;;;;;4993644;28;20066;-71
2022/03/02 09:52:07;;;;;;;8.02;2.70;;;9.20;40.40;;;;;;4973970;28;20034;-71
2022/03/02 09:54:37;;;;;;;7.68;2.60;;;9.20;40.80;;;;;;4991818;28;20037;-71
2022/03/02 09:57:08;;;;;;;4.63;2.65;;;9.20;41.40;;;;;;4990606;28;20045;-72
2022/03/02 09:59:38;;;;;;;7.90;2.33;;;9.30;41.70;;;;;;4986424;28;20050;-71
2022/03/02 10:02:08;;;;;;;5.88;2.38;;;9.40;40.90;;;;;;4990405;28;20054;-71
2022/03/02 10:04:36;;;;;;;5.85;2.58;;;9.40;41.20;;;;;;4992994;28;21010;-71
2022/03/02 10:07:26;;;;;;;7.75;2.42;;;9.50;42.10;;;;;;4991908;28;20324;-72
2022/03/02 10:10:10;;;;;;;8.07;2.83;;;9.60;42.10;;;;;;5006835;28;20854;-72
2022/03/02 10:12:38;;;;;;;7.57;2.45;;;9.80;42.10;;;;;;4986651;28;20042;-71
2022/03/02 10:15:09;;;;;;;7.22;3.05;;;9.80;42.10;;;;;;4992214;28;20049;-72
2022/03/02 10:17:41;;;;;;;6.57;2.72;;;9.70;41.80;;;;;;4991690;28;20053;-71
2022/03/02 10:20:15;;;;;;;6.40;2.67;;;9.80;41.30;;;;;;4994947;28;20169;-72
2022/03/02 10:22:54;;;;;;;9.20;3.15;;;9.80;41.00;;;;;;4988226;28;20536;-72
2022/03/02 10:25:31;;;;;;;7.97;2.47;;;9.80;40.50;;;;;;4991349;28;20489;-71
2022/03/02 10:28:05;;;;;;;6.55;2.97;;;9.90;41.70;;;;;;4986853;28;20089;-71
2022/03/02 10:30:36;;;;;;;11.73;4.38;;;10.00;41.80;;;;;;4994938;28;20038;-72
2022/03/02 10:33:25;;;;;;;9.25;3.90;;;10.00;40.80;;;;;;4986213;28;20057;-72
2022/03/02 10:36:05;;;;;;;7.88;3.10;;;9.80;39.40;;;;;;4992576;28;20068;-71
2022/03/02 10:38:39;;;;;;;7.63;2.85;;;9.90;39.70;;;;;;4989565;28;20126;-72
2022/03/02 10:41:08;;;;;;;5.80;2.70;;;9.70;40.30;;;;;;4987631;28;20054;-71
2022/03/02 10:43:58;;;;;;;5.28;2.50;;;10.00;41.60;;;;;;4990186;28;20926;-72
2022/03/02 10:46:27;;;;;;;7.53;2.67;;;10.00;40.80;;;;;;4987680;28;20049;-72
2022/03/02 10:49:18;;;;;;;6.43;2.53;;;10.20;40.50;;;;;;4988104;28;20049;-72
2022/03/02 10:51:46;;;;;;;6.30;2.53;;;10.40;39.80;;;;;;4991032;28;20040;-72
2022/03/02 10:54:22;;;;;;;8.45;3.80;;;10.40;39.10;;;;;;4989864;28;20436;-72
2022/03/02 10:56:53;;;;;;;8.05;3.28;;;10.40;40.00;;;;;;4990467;28;20505;-71
2022/03/02 10:59:24;;;;;;;7.18;2.83;;;10.60;39.40;;;;;;4991690;28;20034;-71
2022/03/02 11:01:53;;;;;;;7.80;3.35;;;10.50;38.00;;;;;;4987136;28;20046;-71
2022/03/02 11:04:22;;;;;;;5.28;2.53;;;10.30;39.10;;;;;;4993529;28;20142;-71
2022/03/02 11:06:53;;;;;;;5.10;1.80;;;10.50;41.20;;;;;;4988469;28;20405;-72
2022/03/02 11:09:41;;;;;;;12.15;2.10;;;10.60;40.50;;;;;;4987893;28;20085;-71
2022/03/02 11:12:10;;;;;;;5.95;2.42;;;10.80;40.50;;;;;;4987410;28;20050;-72
2022/03/02 11:15:03;;;;;;;6.53;2.30;;;10.80;40.20;;;;;;4989735;28;20046;-72
2022/03/02 11:17:30;;;;;;;8.15;2.90;;;11.10;39.20;;;;;;4991772;28;20046;-72
2022/03/02 11:19:58;;;;;;;7.65;2.80;;;11.10;39.10;;;;;;4990685;28;20052;-72
2022/03/02 11:22:27;;;;;;;4.78;1.90;;;11.30;38.90;;;;;;4992308;28;20046;-71
2022/03/02 11:24:57;;;;;;;7.60;2.40;;;11.40;38.60;;;;;;4991122;28;20042;-72
2022/03/02 11:27:29;;;;;;;5.07;2.38;;;11.40;39.40;;;;;;5006812;28;20042;-72
2022/03/02 11:30:15;;;;;;;11.50;3.35;;;11.40;38.50;;;;;;4987342;28;20049;-71
2022/03/02 11:32:47;;;;;;;6.47;2.85;;;11.30;37.80;;;;;;4989918;28;20037;-72
2022/03/02 11:35:20;;;;;;;6.30;2.88;;;11.40;38.70;;;;;;4992704;28;20042;-72
2022/03/02 11:37:58;;;;;;;5.93;3.17;;;11.50;38.40;;;;;;4990161;28;20444;-71
2022/03/02 11:40:43;;;;;;;7.32;2.83;;;11.60;37.80;;;;;;4989137;28;20068;-72
2022/03/02 11:43:22;;;;;;;6.50;2.65;;;11.70;37.80;;;;;;4991121;28;20604;-72
2022/03/02 11:45:56;;;;;;;6.53;3.50;;;11.60;36.80;;;;;;4992329;28;20064;-72
2022/03/02 11:48:25;;;;;;;5.55;2.70;;;11.40;37.10;;;;;;4973257;28;20084;-72
2022/03/02 11:51:09;;;;;;;4.97;2.25;;;11.50;37.90;;;;;;4989154;28;20886;-72
2022/03/02 11:53:50;;;;;;;7.75;3.05;;;11.70;37.40;;;;;;4990257;28;20202;-71
2022/03/02 11:56:19;;;;;;;10.60;3.38;;;11.70;37.20;;;;;;5004156;28;20061;-71
2022/03/02 11:59:01;;;;;;;9.55;3.13;;;11.80;36.70;;;;;;4999046;28;20141;-72
2022/03/02 12:01:50;;;;;;;6.57;3.03;;;11.70;37.90;;;;;;5002952;28;20060;-72
2022/03/02 12:04:29;;;;;;;7.22;2.65;;;11.80;38.30;;;;;;5005776;28;20058;-72
2022/03/02 12:06:58;;;;;;;9.10;2.97;;;11.80;38.40;;;;;;5005903;28;22046;-72
2022/03/02 12:09:30;;;;;;;9.23;2.92;;;11.80;37.70;;;;;;4990478;28;20042;-72
2022/03/02 12:12:16;;;;;;;9.60;3.58;;;11.70;36.70;;;;;;4993928;28;20049;-71
2022/03/02 12:14:52;;;;;;;5.88;2.88;;;11.60;38.20;;;;;;4993829;28;20497;-72
2022/03/02 12:17:30;;;;;;;8.70;2.78;;;11.80;36.80;;;;;;4992967;28;20496;-71
2022/03/02 12:20:00;;;;;;;7.00;2.75;;;11.80;37.60;;;;;;4984934;28;20175;-73
2022/03/02 12:22:37;;;;;;;8.95;3.10;;;11.90;37.00;;;;;;4967750;28;20050;-71
2022/03/02 12:25:08;;;;;;;8.68;2.78;;;12.10;36.90;;;;;;4990188;28;20057;-71
2022/03/02 12:27:38;;;;;;;8.50;3.00;;;12.30;36.50;;;;;;4988572;28;20042;-71
2022/03/02 12:30:10;;;;;;;8.52;2.75;;;12.30;36.30;;;;;;4985516;28;20521;-71
2022/03/02 12:32:40;;;;;;;6.30;2.83;;;12.30;35.80;;;;;;4971625;28;20042;-71
2022/03/02 12:35:13;;;;;;;7.47;2.63;;;12.30;36.90;;;;;;4992736;28;20037;-70
2022/03/02 12:37:40;;;;;;;7.38;2.85;;;12.10;37.00;;;;;;4988034;28;20053;-70
2022/03/02 12:40:11;;;;;;;7.63;2.60;;;12.00;36.70;;;;;;5005645;28;20075;-70
2022/03/02 12:42:39;;;;;;;23.38;9.98;;;12.20;35.10;;;;;;4985238;28;20050;-71
2022/03/02 12:45:09;;;;;;;13.90;5.05;;;12.20;35.30;;;;;;4988594;28;20604;-70
2022/03/02 12:47:37;;;;;;;9.63;3.97;;;12.10;34.20;;;;;;4987147;28;20053;-70
2022/03/02 12:50:11;;;;;;;8.52;2.72;;;12.10;35.40;;;;;;4989962;28;20503;-71
2022/03/02 12:52:39;;;;;;;10.57;2.72;;;11.90;35.60;;;;;;4988090;28;20042;-71
2022/03/02 12:55:09;;;;;;;7.22;3.33;;;11.90;36.20;;;;;;4986220;28;20038;-72
2022/03/02 12:57:38;;;;;;;7.13;2.95;;;11.90;37.00;;;;;;4998044;28;20056;-70
2022/03/02 13:00:12;;;;;;;5.70;2.47;;;12.00;37.10;;;;;;4984967;28;20452;-71
2022/03/02 13:02:40;;;;;;;7.90;2.70;;;12.00;36.40;;;;;;4989492;28;20450;-70
2022/03/02 13:05:27;;;;;;;6.70;3.00;;;12.00;37.00;;;;;;4986938;28;20046;-70